sensor_id;sensor_type;location;lat;lon;timestamp;pressure;altitude;pressure_sealevel;temperature;humidity
56912;BME280;42800;53.928;27.662;2024-02-26T00:00:41;98898.47;;;4.76;100.00
56912;BME280;42800;53.928;27.662;2024-02-26T00:03:07;98897.25;;;4.74;100.00
56912;BME280;42800;53.928;27.662;2024-02-26T00:05:33;98891.53;;;4.66;100.00
56912;BME280;42800;53.928;27.662;2024-02-26T00:07:59;98885.56;;;4.73;100.00
56912;BME280;42800;53.928;27.662;2024-02-26T00:10:25;98890.16;;;4.60;100.00
56912;BME280;42800;53.928;27.662;2024-02-26T00:12:51;98887.00;;;4.91;100.00
56912;BME280;42800;53.928;27.662;2024-02-26T00:15:17;98885.78;;;4.68;100.00
56912;BME280;42800;53.928;27.662;2024-02-26T00:17:43;98885.25;;;4.75;100.00
56912;BME280;42800;53.928;27.662;2024-02-26T00:20:10;98879.22;;;4.90;100.00
56912;BME280;42800;53.928;27.662;2024-02-26T00:22:37;98876.84;;;5.01;100.00
56912;BME280;42800;53.928;27.662;2024-02-26T00:25:04;98882.78;;;4.82;100.00
56912;BME280;42800;53.928;27.662;2024-02-26T00:27:30;98881.19;;;4.81;100.00
56912;BME280;42800;53.928;27.662;2024-02-26T00:29:56;98884.84;;;4.85;100.00
56912;BME280;42800;53.928;27.662;2024-02-26T00:32:22;98894.31;;;4.79;100.00
56912;BME280;42800;53.928;27.662;2024-02-26T00:34:49;98884.31;;;4.70;100.00
56912;BME280;42800;53.928;27.662;2024-02-26T00:37:15;98875.00;;;4.92;100.00
56912;BME280;42800;53.928;27.662;2024-02-26T00:39:41;98873.78;;;4.90;100.00
56912;BME280;42800;53.928;27.662;2024-02-26T00:42:07;98882.66;;;4.78;100.00
56912;BME280;42800;53.928;27.662;2024-02-26T00:44:34;98871.59;;;4.83;100.00
56912;BME280;42800;53.928;27.662;2024-02-26T00:47:00;98869.25;;;4.73;100.00
56912;BME280;42800;53.928;27.662;2024-02-26T00:49:26;98872.75;;;4.94;100.00
56912;BME280;42800;53.928;27.662;2024-02-26T00:51:53;98872.94;;;4.89;100.00
56912;BME280;42800;53.928;27.662;2024-02-26T00:54:18;98879.78;;;4.95;100.00
56912;BME280;42800;53.928;27.662;2024-02-26T00:56:44;98878.97;;;4.95;100.00
56912;BME280;42800;53.928;27.662;2024-02-26T00:59:10;98877.78;;;5.05;100.00
56912;BME280;42800;53.928;27.662;2024-02-26T01:01:36;98886.22;;;4.91;100.00
56912;BME280;42800;53.928;27.662;2024-02-26T01:04:02;98873.16;;;5.17;100.00
56912;BME280;42800;53.928;27.662;2024-02-26T01:06:29;98881.22;;;4.93;100.00
56912;BME280;42800;53.928;27.662;2024-02-26T01:08:55;98865.28;;;4.91;100.00
56912;BME280;42800;53.928;27.662;2024-02-26T01:11:21;98878.81;;;4.58;100.00
56912;BME280;42800;53.928;27.662;2024-02-26T01:13:47;98872.31;;;4.71;100.00
56912;BME280;42800;53.928;27.662;2024-02-26T01:16:13;98866.69;;;4.56;100.00
56912;BME280;42800;53.928;27.662;2024-02-26T01:18:39;98853.97;;;4.68;100.00
56912;BME280;42800;53.928;27.662;2024-02-26T01:21:05;98862.66;;;4.62;100.00
56912;BME280;42800;53.928;27.662;2024-02-26T01:23:34;98862.72;;;5.07;100.00
56912;BME280;42800;53.928;27.662;2024-02-26T01:26:00;98864.97;;;4.72;100.00
56912;BME280;42800;53.928;27.662;2024-02-26T01:28:27;98865.25;;;4.58;100.00
56912;BME280;42800;53.928;27.662;2024-02-26T01:30:53;98853.44;;;4.75;100.00
56912;BME280;42800;53.928;27.662;2024-02-26T01:33:19;98858.25;;;4.57;100.00
56912;BME280;42800;53.928;27.662;2024-02-26T01:35:45;98864.25;;;4.63;100.00
56912;BME280;42800;53.928;27.662;2024-02-26T01:38:12;98857.84;;;4.67;100.00
56912;BME280;42800;53.928;27.662;2024-02-26T01:40:38;98864.13;;;4.80;100.00
56912;BME280;42800;53.928;27.662;2024-02-26T01:43:04;98872.84;;;4.65;100.00
56912;BME280;42800;53.928;27.662;2024-02-26T01:45:30;98864.13;;;4.92;100.00
56912;BME280;42800;53.928;27.662;2024-02-26T01:47:56;98861.66;;;4.87;100.00
56912;BME280;42800;53.928;27.662;2024-02-26T01:50:23;98860.88;;;4.66;100.00
56912;BME280;42800;53.928;27.662;2024-02-26T01:52:50;98864.84;;;4.68;100.00
56912;BME280;42800;53.928;27.662;2024-02-26T01:55:17;98873.78;;;4.48;100.00
56912;BME280;42800;53.928;27.662;2024-02-26T01:57:45;98855.25;;;4.71;100.00
56912;BME280;42800;53.928;27.662;2024-02-26T02:00:14;98854.66;;;4.65;100.00
56912;BME280;42800;53.928;27.662;2024-02-26T02:02:41;98852.41;;;4.67;100.00
56912;BME280;42800;53.928;27.662;2024-02-26T02:05:10;98843.34;;;4.63;100.00
56912;BME280;42800;53.928;27.662;2024-02-26T02:07:37;98847.56;;;4.52;100.00
56912;BME280;42800;53.928;27.662;2024-02-26T02:10:05;98837.69;;;4.68;100.00
56912;BME280;42800;53.928;27.662;2024-02-26T02:12:32;98852.88;;;4.48;100.00
56912;BME280;42800;53.928;27.662;2024-02-26T02:14:58;98848.72;;;4.51;100.00
56912;BME280;42800;53.928;27.662;2024-02-26T02:17:25;98840.53;;;4.72;100.00
56912;BME280;42800;53.928;27.662;2024-02-26T02:19:51;98850.53;;;4.59;100.00
56912;BME280;42800;53.928;27.662;2024-02-26T02:22:18;98840.34;;;4.56;100.00
56912;BME280;42800;53.928;27.662;2024-02-26T02:24:44;98833.34;;;4.55;100.00
56912;BME280;42800;53.928;27.662;2024-02-26T02:27:10;98837.91;;;4.63;100.00
56912;BME280;42800;53.928;27.662;2024-02-26T02:29:36;98839.75;;;4.71;100.00
56912;BME280;42800;53.928;27.662;2024-02-26T02:32:03;98849.31;;;4.57;100.00
56912;BME280;42800;53.928;27.662;2024-02-26T02:34:31;98842.19;;;4.64;100.00
56912;BME280;42800;53.928;27.662;2024-02-26T02:36:57;98841.41;;;4.64;100.00
56912;BME280;42800;53.928;27.662;2024-02-26T02:39:23;98834.25;;;4.59;100.00
56912;BME280;42800;53.928;27.662;2024-02-26T02:41:49;98826.09;;;4.59;100.00
56912;BME280;42800;53.928;27.662;2024-02-26T02:44:15;98826.53;;;4.82;100.00
56912;BME280;42800;53.928;27.662;2024-02-26T02:46:41;98833.06;;;4.69;100.00
56912;BME280;42800;53.928;27.662;2024-02-26T02:49:08;98838.72;;;4.76;100.00
56912;BME280;42800;53.928;27.662;2024-02-26T02:51:35;98827.50;;;4.65;100.00
56912;BME280;42800;53.928;27.662;2024-02-26T02:54:01;98827.06;;;4.63;100.00
56912;BME280;42800;53.928;27.662;2024-02-26T02:56:27;98815.25;;;4.92;100.00
56912;BME280;42800;53.928;27.662;2024-02-26T02:58:53;98821.50;;;5.05;100.00
56912;BME280;42800;53.928;27.662;2024-02-26T03:01:19;98820.78;;;4.84;100.00
56912;BME280;42800;53.928;27.662;2024-02-26T03:03:45;98842.25;;;4.77;100.00
56912;BME280;42800;53.928;27.662;2024-02-26T03:06:11;98837.75;;;4.93;100.00
56912;BME280;42800;53.928;27.662;2024-02-26T03:08:37;98836.69;;;4.73;100.00
56912;BME280;42800;53.928;27.662;2024-02-26T03:11:05;98835.50;;;4.62;100.00
56912;BME280;42800;53.928;27.662;2024-02-26T03:13:31;98832.13;;;4.65;100.00
56912;BME280;42800;53.928;27.662;2024-02-26T03:15:57;98833.97;;;4.73;100.00
56912;BME280;42800;53.928;27.662;2024-02-26T03:18:23;98837.03;;;4.71;100.00
56912;BME280;42800;53.928;27.662;2024-02-26T03:20:49;98831.13;;;5.03;100.00
56912;BME280;42800;53.928;27.662;2024-02-26T03:23:15;98832.19;;;4.77;100.00
56912;BME280;42800;53.928;27.662;2024-02-26T03:25:43;98824.47;;;4.79;100.00
56912;BME280;42800;53.928;27.662;2024-02-26T03:28:09;98826.09;;;4.92;100.00
56912;BME280;42800;53.928;27.662;2024-02-26T03:30:36;98828.34;;;4.78;100.00
56912;BME280;42800;53.928;27.662;2024-02-26T03:33:02;98823.06;;;4.94;100.00
56912;BME280;42800;53.928;27.662;2024-02-26T03:35:28;98823.06;;;4.94;100.00
56912;BME280;42800;53.928;27.662;2024-02-26T03:37:54;98830.28;;;5.23;100.00
56912;BME280;42800;53.928;27.662;2024-02-26T03:40:20;98831.81;;;5.12;100.00
56912;BME280;42800;53.928;27.662;2024-02-26T03:42:46;98841.75;;;4.95;100.00
56912;BME280;42800;53.928;27.662;2024-02-26T03:45:12;98838.03;;;5.12;100.00
56912;BME280;42800;53.928;27.662;2024-02-26T03:47:38;98840.63;;;4.97;100.00
56912;BME280;42800;53.928;27.662;2024-02-26T03:50:06;98847.75;;;5.01;100.00
56912;BME280;42800;53.928;27.662;2024-02-26T03:52:32;98845.38;;;5.00;100.00
56912;BME280;42800;53.928;27.662;2024-02-26T03:54:59;98856.34;;;4.91;100.00
56912;BME280;42800;53.928;27.662;2024-02-26T03:57:25;98847.97;;;4.96;100.00
56912;BME280;42800;53.928;27.662;2024-02-26T03:59:51;98845.47;;;4.91;100.00
56912;BME280;42800;53.928;27.662;2024-02-26T04:02:17;98851.75;;;5.04;100.00
56912;BME280;42800;53.928;27.662;2024-02-26T04:04:45;98857.13;;;4.91;100.00
56912;BME280;42800;53.928;27.662;2024-02-26T04:07:11;98845.09;;;5.13;100.00
56912;BME280;42800;53.928;27.662;2024-02-26T04:09:38;98850.72;;;5.08;100.00
56912;BME280;42800;53.928;27.662;2024-02-26T04:12:05;98856.16;;;5.08;100.00
56912;BME280;42800;53.928;27.662;2024-02-26T04:14:31;98854.75;;;4.90;100.00
56912;BME280;42800;53.928;27.662;2024-02-26T04:16:56;98846.72;;;4.93;100.00
56912;BME280;42800;53.928;27.662;2024-02-26T04:19:22;98838.41;;;5.11;100.00
56912;BME280;42800;53.928;27.662;2024-02-26T04:21:49;98849.47;;;5.06;100.00
56912;BME280;42800;53.928;27.662;2024-02-26T04:24:15;98845.59;;;4.94;100.00
56912;BME280;42800;53.928;27.662;2024-02-26T04:26:41;98846.69;;;4.81;100.00
56912;BME280;42800;53.928;27.662;2024-02-26T04:29:07;98853.25;;;5.13;100.00
56912;BME280;42800;53.928;27.662;2024-02-26T04:31:33;98844.00;;;4.93;100.00
56912;BME280;42800;53.928;27.662;2024-02-26T04:33:59;98853.44;;;5.08;100.00
56912;BME280;42800;53.928;27.662;2024-02-26T04:36:25;98854.34;;;5.00;100.00
56912;BME280;42800;53.928;27.662;2024-02-26T04:38:52;98848.13;;;4.79;100.00
56912;BME280;42800;53.928;27.662;2024-02-26T04:41:20;98849.09;;;4.95;100.00
56912;BME280;42800;53.928;27.662;2024-02-26T04:43:46;98841.44;;;4.76;100.00
56912;BME280;42800;53.928;27.662;2024-02-26T04:46:12;98839.63;;;5.01;100.00
56912;BME280;42800;53.928;27.662;2024-02-26T04:48:38;98836.84;;;4.89;100.00
56912;BME280;42800;53.928;27.662;2024-02-26T04:51:04;98824.34;;;5.09;100.00
56912;BME280;42800;53.928;27.662;2024-02-26T04:53:30;98826.75;;;4.77;100.00
56912;BME280;42800;53.928;27.662;2024-02-26T04:55:57;98826.56;;;4.94;100.00
56912;BME280;42800;53.928;27.662;2024-02-26T04:58:23;98832.75;;;4.83;100.00
56912;BME280;42800;53.928;27.662;2024-02-26T05:00:49;98832.88;;;4.86;100.00
56912;BME280;42800;53.928;27.662;2024-02-26T05:03:14;98846.00;;;4.84;100.00
56912;BME280;42800;53.928;27.662;2024-02-26T05:05:41;98838.06;;;4.79;100.00
56912;BME280;42800;53.928;27.662;2024-02-26T05:08:07;98838.66;;;4.85;100.00
56912;BME280;42800;53.928;27.662;2024-02-26T05:10:33;98832.25;;;5.02;100.00
56912;BME280;42800;53.928;27.662;2024-02-26T05:13:00;98833.16;;;4.93;100.00
56912;BME280;42800;53.928;27.662;2024-02-26T05:15:25;98838.59;;;5.06;100.00
56912;BME280;42800;53.928;27.662;2024-02-26T05:17:51;98831.53;;;4.92;100.00
56912;BME280;42800;53.928;27.662;2024-02-26T05:20:18;98841.31;;;4.72;100.00
56912;BME280;42800;53.928;27.662;2024-02-26T05:22:52;98831.47;;;5.01;100.00
56912;BME280;42800;53.928;27.662;2024-02-26T05:25:24;98836.38;;;5.20;100.00
56912;BME280;42800;53.928;27.662;2024-02-26T05:27:50;98845.75;;;5.10;100.00
56912;BME280;42800;53.928;27.662;2024-02-26T05:30:17;98847.75;;;5.01;100.00
56912;BME280;42800;53.928;27.662;2024-02-26T05:32:43;98849.03;;;5.16;100.00
56912;BME280;42800;53.928;27.662;2024-02-26T05:35:09;98852.31;;;5.09;100.00
56912;BME280;42800;53.928;27.662;2024-02-26T05:37:35;98863.69;;;5.36;100.00
56912;BME280;42800;53.928;27.662;2024-02-26T05:40:01;98877.19;;;5.45;100.00
56912;BME280;42800;53.928;27.662;2024-02-26T05:42:29;98880.22;;;5.43;100.00
56912;BME280;42800;53.928;27.662;2024-02-26T05:44:55;98891.00;;;5.06;100.00
56912;BME280;42800;53.928;27.662;2024-02-26T05:47:22;98882.28;;;5.01;100.00
56912;BME280;42800;53.928;27.662;2024-02-26T05:49:48;98891.28;;;5.26;100.00
56912;BME280;42800;53.928;27.662;2024-02-26T05:52:14;98901.06;;;5.27;100.00
56912;BME280;42800;53.928;27.662;2024-02-26T05:54:40;98917.03;;;5.28;100.00
56912;BME280;42800;53.928;27.662;2024-02-26T05:57:06;98919.38;;;5.17;100.00
56912;BME280;42800;53.928;27.662;2024-02-26T05:59:32;98917.75;;;5.04;100.00
56912;BME280;42800;53.928;27.662;2024-02-26T06:01:59;98913.16;;;5.17;100.00
56912;BME280;42800;53.928;27.662;2024-02-26T06:04:25;98920.88;;;4.94;100.00
56912;BME280;42800;53.928;27.662;2024-02-26T06:06:51;98920.16;;;5.18;100.00
56912;BME280;42800;53.928;27.662;2024-02-26T06:09:17;98926.56;;;5.34;100.00
56912;BME280;42800;53.928;27.662;2024-02-26T06:11:43;98923.38;;;5.32;100.00
56912;BME280;42800;53.928;27.662;2024-02-26T06:14:09;98939.25;;;5.42;100.00
56912;BME280;42800;53.928;27.662;2024-02-26T06:16:36;98942.50;;;5.24;100.00
56912;BME280;42800;53.928;27.662;2024-02-26T06:19:02;98944.03;;;5.46;100.00
56912;BME280;42800;53.928;27.662;2024-02-26T06:21:29;98957.81;;;5.07;100.00
56912;BME280;42800;53.928;27.662;2024-02-26T06:23:55;98957.81;;;5.07;100.00
56912;BME280;42800;53.928;27.662;2024-02-26T06:26:21;98958.94;;;5.06;100.00
56912;BME280;42800;53.928;27.662;2024-02-26T06:28:47;98962.06;;;5.17;100.00
56912;BME280;42800;53.928;27.662;2024-02-26T06:31:13;98966.31;;;4.85;100.00
56912;BME280;42800;53.928;27.662;2024-02-26T06:33:39;98958.16;;;5.06;100.00
56912;BME280;42800;53.928;27.662;2024-02-26T06:36:05;98966.97;;;5.03;100.00
56912;BME280;42800;53.928;27.662;2024-02-26T06:38:31;98959.25;;;5.26;100.00
56912;BME280;42800;53.928;27.662;2024-02-26T06:40:57;98974.78;;;5.04;100.00
56912;BME280;42800;53.928;27.662;2024-02-26T06:43:23;98971.41;;;5.07;100.00
56912;BME280;42800;53.928;27.662;2024-02-26T06:45:49;98969.34;;;5.04;100.00
56912;BME280;42800;53.928;27.662;2024-02-26T06:48:15;98968.69;;;5.07;100.00
56912;BME280;42800;53.928;27.662;2024-02-26T06:50:41;98967.09;;;5.06;100.00
56912;BME280;42800;53.928;27.662;2024-02-26T06:53:07;98977.69;;;4.99;100.00
56912;BME280;42800;53.928;27.662;2024-02-26T06:55:33;98974.72;;;4.92;100.00
56912;BME280;42800;53.928;27.662;2024-02-26T06:57:59;98976.13;;;4.77;100.00
56912;BME280;42800;53.928;27.662;2024-02-26T07:00:25;98979.94;;;5.18;100.00
56912;BME280;42800;53.928;27.662;2024-02-26T07:02:51;98994.00;;;4.99;100.00
56912;BME280;42800;53.928;27.662;2024-02-26T07:05:17;98982.84;;;5.34;100.00
56912;BME280;42800;53.928;27.662;2024-02-26T07:07:43;99001.31;;;5.07;100.00
56912;BME280;42800;53.928;27.662;2024-02-26T07:10:10;99010.91;;;5.05;100.00
56912;BME280;42800;53.928;27.662;2024-02-26T07:12:38;99016.25;;;4.71;100.00
56912;BME280;42800;53.928;27.662;2024-02-26T07:15:05;99009.69;;;4.72;100.00
56912;BME280;42800;53.928;27.662;2024-02-26T07:17:33;99017.44;;;4.83;100.00
56912;BME280;42800;53.928;27.662;2024-02-26T07:19:59;99027.47;;;4.91;100.00
56912;BME280;42800;53.928;27.662;2024-02-26T07:22:25;99030.06;;;5.08;100.00
56912;BME280;42800;53.928;27.662;2024-02-26T07:24:51;99039.66;;;5.06;100.00
56912;BME280;42800;53.928;27.662;2024-02-26T07:27:18;99042.09;;;4.99;100.00
56912;BME280;42800;53.928;27.662;2024-02-26T07:29:44;99049.34;;;4.94;100.00
56912;BME280;42800;53.928;27.662;2024-02-26T07:32:10;99038.72;;;4.81;100.00
56912;BME280;42800;53.928;27.662;2024-02-26T07:34:36;99040.13;;;5.08;100.00
56912;BME280;42800;53.928;27.662;2024-02-26T07:37:04;99030.16;;;4.70;100.00
56912;BME280;42800;53.928;27.662;2024-02-26T07:39:32;99027.25;;;4.96;100.00
56912;BME280;42800;53.928;27.662;2024-02-26T07:41:58;99017.38;;;4.70;100.00
56912;BME280;42800;53.928;27.662;2024-02-26T07:44:23;99012.63;;;4.88;100.00
56912;BME280;42800;53.928;27.662;2024-02-26T07:46:50;98996.50;;;4.62;100.00
56912;BME280;42800;53.928;27.662;2024-02-26T07:49:16;99003.84;;;4.62;100.00
56912;BME280;42800;53.928;27.662;2024-02-26T07:51:42;98994.22;;;4.94;100.00
56912;BME280;42800;53.928;27.662;2024-02-26T07:54:08;98976.66;;;4.70;100.00
56912;BME280;42800;53.928;27.662;2024-02-26T07:56:34;98985.38;;;4.55;100.00
56912;BME280;42800;53.928;27.662;2024-02-26T07:59:00;98972.75;;;5.01;100.00
56912;BME280;42800;53.928;27.662;2024-02-26T08:01:26;98988.56;;;4.78;100.00
56912;BME280;42800;53.928;27.662;2024-02-26T08:03:52;98996.66;;;5.08;100.00
56912;BME280;42800;53.928;27.662;2024-02-26T08:06:18;99004.41;;;5.18;100.00
56912;BME280;42800;53.928;27.662;2024-02-26T08:08:44;99008.97;;;5.05;100.00
56912;BME280;42800;53.928;27.662;2024-02-26T08:11:10;99008.56;;;5.15;100.00
56912;BME280;42800;53.928;27.662;2024-02-26T08:13:36;99026.00;;;5.14;100.00
56912;BME280;42800;53.928;27.662;2024-02-26T08:16:02;99030.56;;;4.81;100.00
56912;BME280;42800;53.928;27.662;2024-02-26T08:18:28;99037.47;;;4.99;100.00
56912;BME280;42800;53.928;27.662;2024-02-26T08:20:55;99034.75;;;4.99;100.00
56912;BME280;42800;53.928;27.662;2024-02-26T08:23:21;99049.25;;;4.82;100.00
56912;BME280;42800;53.928;27.662;2024-02-26T08:25:47;99057.63;;;4.98;100.00
56912;BME280;42800;53.928;27.662;2024-02-26T08:28:13;99062.78;;;4.91;100.00
56912;BME280;42800;53.928;27.662;2024-02-26T08:30:39;99055.72;;;4.69;100.00
56912;BME280;42800;53.928;27.662;2024-02-26T08:33:05;99060.88;;;4.91;100.00
56912;BME280;42800;53.928;27.662;2024-02-26T08:35:31;99050.00;;;5.12;100.00
56912;BME280;42800;53.928;27.662;2024-02-26T08:37:58;99060.16;;;5.24;100.00
56912;BME280;42800;53.928;27.662;2024-02-26T08:40:23;99070.63;;;5.13;100.00
56912;BME280;42800;53.928;27.662;2024-02-26T08:42:49;99081.16;;;5.15;100.00
56912;BME280;42800;53.928;27.662;2024-02-26T08:45:15;99102.09;;;4.93;100.00
56912;BME280;42800;53.928;27.662;2024-02-26T08:47:41;99082.13;;;4.89;100.00
56912;BME280;42800;53.928;27.662;2024-02-26T08:50:08;99077.31;;;4.65;100.00
56912;BME280;42800;53.928;27.662;2024-02-26T08:52:37;99080.44;;;4.46;100.00
56912;BME280;42800;53.928;27.662;2024-02-26T08:55:04;99071.34;;;4.72;100.00
56912;BME280;42800;53.928;27.662;2024-02-26T08:57:31;99061.16;;;4.69;100.00
56912;BME280;42800;53.928;27.662;2024-02-26T08:59:59;99062.78;;;5.12;100.00
56912;BME280;42800;53.928;27.662;2024-02-26T09:02:25;99064.97;;;4.77;100.00
56912;BME280;42800;53.928;27.662;2024-02-26T09:04:51;99063.56;;;4.91;100.00
56912;BME280;42800;53.928;27.662;2024-02-26T09:07:19;99059.63;;;5.10;100.00
56912;BME280;42800;53.928;27.662;2024-02-26T09:09:45;99062.44;;;4.92;100.00
56912;BME280;42800;53.928;27.662;2024-02-26T09:12:11;99067.00;;;4.80;100.00
56912;BME280;42800;53.928;27.662;2024-02-26T09:14:37;99065.78;;;4.98;100.00
56912;BME280;42800;53.928;27.662;2024-02-26T09:17:03;99057.31;;;4.70;100.00
56912;BME280;42800;53.928;27.662;2024-02-26T09:19:29;99049.50;;;4.89;100.00
56912;BME280;42800;53.928;27.662;2024-02-26T09:21:55;99073.28;;;4.71;100.00
56912;BME280;42800;53.928;27.662;2024-02-26T09:24:22;99063.78;;;4.57;100.00
56912;BME280;42800;53.928;27.662;2024-02-26T09:26:49;99056.56;;;4.61;100.00
56912;BME280;42800;53.928;27.662;2024-02-26T09:29:15;99060.72;;;4.58;100.00
56912;BME280;42800;53.928;27.662;2024-02-26T09:31:41;99056.72;;;4.64;100.00
56912;BME280;42800;53.928;27.662;2024-02-26T09:34:07;99069.53;;;4.85;100.00
56912;BME280;42800;53.928;27.662;2024-02-26T09:36:33;99064.38;;;5.13;100.00
56912;BME280;42800;53.928;27.662;2024-02-26T09:38:59;99084.66;;;4.65;100.00
56912;BME280;42800;53.928;27.662;2024-02-26T09:41:28;99068.97;;;4.70;100.00
56912;BME280;42800;53.928;27.662;2024-02-26T09:43:56;99080.53;;;4.59;100.00
56912;BME280;42800;53.928;27.662;2024-02-26T09:46:23;99062.66;;;4.87;100.00
56912;BME280;42800;53.928;27.662;2024-02-26T09:48:50;99071.81;;;5.04;100.00
56912;BME280;42800;53.928;27.662;2024-02-26T09:51:17;99084.53;;;4.91;100.00
56912;BME280;42800;53.928;27.662;2024-02-26T09:53:44;99085.28;;;4.70;100.00
56912;BME280;42800;53.928;27.662;2024-02-26T09:56:12;99081.50;;;5.13;100.00
56912;BME280;42800;53.928;27.662;2024-02-26T09:58:39;99082.94;;;5.32;100.00
56912;BME280;42800;53.928;27.662;2024-02-26T10:01:09;99096.97;;;5.13;100.00
56912;BME280;42800;53.928;27.662;2024-02-26T10:03:39;99103.06;;;4.89;100.00
56912;BME280;42800;53.928;27.662;2024-02-26T10:06:12;99094.75;;;5.15;100.00
56912;BME280;42800;53.928;27.662;2024-02-26T10:08:40;99102.00;;;5.02;100.00
56912;BME280;42800;53.928;27.662;2024-02-26T10:11:06;99112.53;;;5.33;100.00
56912;BME280;42800;53.928;27.662;2024-02-26T10:13:34;99114.06;;;4.92;100.00
56912;BME280;42800;53.928;27.662;2024-02-26T10:16:00;99114.78;;;4.81;100.00
56912;BME280;42800;53.928;27.662;2024-02-26T10:18:45;99107.97;;;4.95;100.00
56912;BME280;42800;53.928;27.662;2024-02-26T10:21:11;99094.44;;;5.16;100.00
56912;BME280;42800;53.928;27.662;2024-02-26T10:23:37;99098.66;;;5.26;100.00
56912;BME280;42800;53.928;27.662;2024-02-26T10:26:03;99112.81;;;4.90;100.00
56912;BME280;42800;53.928;27.662;2024-02-26T10:28:30;99104.22;;;4.79;100.00
56912;BME280;42800;53.928;27.662;2024-02-26T10:30:56;99084.63;;;5.03;100.00
56912;BME280;42800;53.928;27.662;2024-02-26T10:33:22;99087.19;;;5.21;100.00
56912;BME280;42800;53.928;27.662;2024-02-26T10:35:49;99103.75;;;5.07;100.00
56912;BME280;42800;53.928;27.662;2024-02-26T10:38:15;99096.59;;;5.02;100.00
56912;BME280;42800;53.928;27.662;2024-02-26T10:40:45;99099.22;;;4.90;100.00
56912;BME280;42800;53.928;27.662;2024-02-26T10:43:11;99091.41;;;5.09;100.00
56912;BME280;42800;53.928;27.662;2024-02-26T10:45:39;99103.25;;;4.84;100.00
56912;BME280;42800;53.928;27.662;2024-02-26T10:48:09;99104.41;;;5.04;100.00
56912;BME280;42800;53.928;27.662;2024-02-26T10:50:36;99112.28;;;5.47;100.00
56912;BME280;42800;53.928;27.662;2024-02-26T10:53:03;99137.56;;;5.18;100.00
56912;BME280;42800;53.928;27.662;2024-02-26T10:55:31;99142.06;;;4.84;100.00
56912;BME280;42800;53.928;27.662;2024-02-26T10:57:58;99118.28;;;5.11;100.00
56912;BME280;42800;53.928;27.662;2024-02-26T11:00:25;99128.28;;;4.89;100.00
56912;BME280;42800;53.928;27.662;2024-02-26T11:02:51;99128.09;;;5.03;100.00
56912;BME280;42800;53.928;27.662;2024-02-26T11:05:19;99118.28;;;5.11;100.00
56912;BME280;42800;53.928;27.662;2024-02-26T11:07:47;99137.44;;;5.35;100.00
56912;BME280;42800;53.928;27.662;2024-02-26T11:10:16;99150.28;;;5.05;100.00
56912;BME280;42800;53.928;27.662;2024-02-26T11:12:42;99141.66;;;5.03;100.00
56912;BME280;42800;53.928;27.662;2024-02-26T11:15:09;99139.38;;;5.35;100.00
56912;BME280;42800;53.928;27.662;2024-02-26T11:17:36;99147.66;;;5.17;100.00
56912;BME280;42800;53.928;27.662;2024-02-26T11:20:04;99141.16;;;5.10;100.00
56912;BME280;42800;53.928;27.662;2024-02-26T11:22:31;99129.16;;;5.53;100.00
56912;BME280;42800;53.928;27.662;2024-02-26T11:24:58;99137.72;;;5.22;100.00
56912;BME280;42800;53.928;27.662;2024-02-26T11:27:29;99123.13;;;5.26;100.00
56912;BME280;42800;53.928;27.662;2024-02-26T11:29:59;99133.19;;;5.26;100.00
56912;BME280;42800;53.928;27.662;2024-02-26T11:32:26;99128.34;;;5.10;100.00
56912;BME280;42800;53.928;27.662;2024-02-26T11:34:53;99130.34;;;5.22;100.00
56912;BME280;42800;53.928;27.662;2024-02-26T11:37:20;99133.06;;;5.22;100.00
56912;BME280;42800;53.928;27.662;2024-02-26T11:39:46;99139.91;;;5.28;100.00
56912;BME280;42800;53.928;27.662;2024-02-26T11:42:14;99156.03;;;5.33;100.00
56912;BME280;42800;53.928;27.662;2024-02-26T11:44:41;99161.75;;;5.11;100.00
56912;BME280;42800;53.928;27.662;2024-02-26T11:47:11;99152.34;;;5.29;100.00
56912;BME280;42800;53.928;27.662;2024-02-26T11:49:37;99145.00;;;5.30;100.00
56912;BME280;42800;53.928;27.662;2024-02-26T11:52:05;99139.22;;;5.10;100.00
56912;BME280;42800;53.928;27.662;2024-02-26T11:54:53;99150.47;;;5.00;100.00
56912;BME280;42800;53.928;27.662;2024-02-26T11:57:21;99142.53;;;5.16;100.00
56912;BME280;42800;53.928;27.662;2024-02-26T11:59:48;99147.91;;;5.04;100.00
56912;BME280;42800;53.928;27.662;2024-02-26T12:02:44;99139.09;;;5.28;100.00
56912;BME280;42800;53.928;27.662;2024-02-26T12:05:11;99143.63;;;5.45;100.00
56912;BME280;42800;53.928;27.662;2024-02-26T12:07:40;99152.50;;;5.33;100.00
56912;BME280;42800;53.928;27.662;2024-02-26T12:10:17;99154.28;;;4.99;100.00
56912;BME280;42800;53.928;27.662;2024-02-26T12:12:46;99146.94;;;5.00;100.00
56912;BME280;42800;53.928;27.662;2024-02-26T12:15:14;99145.56;;;5.23;100.00
56912;BME280;42800;53.928;27.662;2024-02-26T12:17:41;99146.84;;;5.17;100.00
56912;BME280;42800;53.928;27.662;2024-02-26T12:20:11;99158.03;;;5.15;100.00
56912;BME280;42800;53.928;27.662;2024-02-26T12:22:39;99161.31;;;5.30;100.00
56912;BME280;42800;53.928;27.662;2024-02-26T12:25:08;99162.38;;;5.16;100.00
56912;BME280;42800;53.928;27.662;2024-02-26T12:27:34;99160.16;;;5.60;100.00
56912;BME280;42800;53.928;27.662;2024-02-26T12:30:01;99174.59;;;5.31;100.00
56912;BME280;42800;53.928;27.662;2024-02-26T12:32:29;99173.22;;;5.67;100.00
56912;BME280;42800;53.928;27.662;2024-02-26T12:34:56;99191.28;;;5.21;100.00
56912;BME280;42800;53.928;27.662;2024-02-26T12:37:22;99186.44;;;5.27;100.00
56912;BME280;42800;53.928;27.662;2024-02-26T12:39:49;99183.88;;;5.30;100.00
56912;BME280;42800;53.928;27.662;2024-02-26T12:42:15;99171.34;;;5.08;100.00
56912;BME280;42800;53.928;27.662;2024-02-26T12:44:41;99170.94;;;5.27;100.00
56912;BME280;42800;53.928;27.662;2024-02-26T12:47:07;99163.19;;;5.08;100.00